Terminal Aerodrome Forecast
Issued by NWS Caribou, ME

Home | Current Version | Previous Version | Text Only | Print | Product List | Glossary On
Versions: 1 2 3 4 5 6 7 8 9 10 11 12 13 14 15 16 17 18 19
200
FTUS41 KCAR 131120
TAFBGR
TAF
KBGR 131120Z 1312/1412 31005KT 2SM -SN BR SCT007 OVC015
     FM131400 23008KT 3SM -SHSN OVC020
     FM131800 28012G20KT P6SM OVC030
     FM132200 28012G20KT P6SM BKN080=

USA.gov is the U.S. government's official web portal to all federal, state and local government web resources and services.